createdAt,value
2019-01-28T00:01:30.328Z,4.90
2019-01-28T00:04:01.254Z,5.00
2019-01-28T00:06:32.074Z,4.90
2019-01-28T00:09:03.304Z,4.90
2019-01-28T00:11:34.062Z,4.90
2019-01-28T00:14:06.940Z,4.90
2019-01-28T00:16:37.814Z,4.80
2019-01-28T00:19:08.557Z,4.80
2019-01-28T00:21:39.375Z,4.80
2019-01-28T00:24:10.187Z,4.90
2019-01-28T00:26:41.059Z,4.90
2019-01-28T00:29:12.818Z,4.80
2019-01-28T00:31:44.183Z,4.80
2019-01-28T00:34:15.301Z,4.80
2019-01-28T00:36:46.126Z,4.80
2019-01-28T00:39:16.872Z,4.90
2019-01-28T00:41:47.679Z,4.80
2019-01-28T00:44:18.999Z,4.80
2019-01-28T00:46:49.827Z,4.80
2019-01-28T00:49:20.555Z,4.80
2019-01-28T00:51:51.663Z,4.80
2019-01-28T00:54:22.383Z,4.80
2019-01-28T00:56:53.473Z,4.80
2019-01-28T00:59:24.513Z,4.80
2019-01-28T01:01:55.664Z,4.80
2019-01-28T01:04:26.526Z,4.80
2019-01-28T01:06:57.384Z,4.80
2019-01-28T01:09:28.351Z,4.70
2019-01-28T01:11:59.852Z,4.70
2019-01-28T01:14:30.714Z,4.70
2019-01-28T01:17:01.436Z,4.80
2019-01-28T01:19:32.727Z,4.70
2019-01-28T01:22:03.468Z,4.80
2019-01-28T01:25:40.968Z,4.70
2019-01-28T01:28:11.686Z,4.70
2019-01-28T01:30:42.489Z,4.70
2019-01-28T01:33:13.348Z,4.70
2019-01-28T01:35:44.304Z,4.60
2019-01-28T01:38:15.352Z,4.60
2019-01-28T01:40:46.491Z,4.50
2019-01-28T01:43:17.298Z,4.50
2019-01-28T01:45:48.294Z,4.40
2019-01-28T01:48:19.027Z,4.40
2019-01-28T01:50:50.016Z,4.30
2019-01-28T01:53:21.195Z,4.30
2019-01-28T01:55:52.574Z,4.30
2019-01-28T01:58:23.303Z,4.30
2019-01-28T02:00:54.174Z,4.30
2019-01-28T02:03:25.049Z,4.30
2019-01-28T02:05:55.769Z,4.30
2019-01-28T02:08:26.522Z,4.20
2019-01-28T02:10:57.571Z,4.20
2019-01-28T02:13:28.702Z,4.20
2019-01-28T02:16:00.317Z,4.20
2019-01-28T02:18:32.190Z,4.30
2019-01-28T02:21:02.989Z,4.20
2019-01-28T02:23:33.704Z,4.10
2019-01-28T02:26:04.847Z,4.10
2019-01-28T02:28:35.751Z,4.20
2019-01-28T02:31:06.840Z,4.10
2019-01-28T02:33:37.634Z,4.20
2019-01-28T02:36:08.467Z,4.10
2019-01-28T02:38:39.256Z,4.10
2019-01-28T02:41:09.983Z,4.10
2019-01-28T02:43:40.816Z,4.10
2019-01-28T02:46:11.698Z,4.10
2019-01-28T02:48:42.502Z,4.00
2019-01-28T02:51:13.226Z,4.00
2019-01-28T02:53:44.298Z,3.90
2019-01-28T02:56:15.192Z,3.90
2019-01-28T02:58:46.453Z,3.90
2019-01-28T03:01:17.296Z,3.90
2019-01-28T03:03:48.023Z,3.90
2019-01-28T03:06:18.976Z,3.80
2019-01-28T03:08:50.200Z,3.90
2019-01-28T03:12:45.931Z,3.90
2019-01-28T03:15:17.888Z,3.90
2019-01-28T03:17:48.760Z,3.90
2019-01-28T03:20:20.765Z,3.90
2019-01-28T03:22:51.648Z,3.90
2019-01-28T03:25:22.528Z,3.80
2019-01-28T03:27:53.561Z,3.90
2019-01-28T03:30:24.716Z,3.80
2019-01-28T03:32:55.613Z,3.80
2019-01-28T03:35:26.361Z,3.80
2019-01-28T03:37:57.414Z,3.80
2019-01-28T03:40:28.182Z,3.80
2019-01-28T03:42:59.155Z,3.80
2019-01-28T03:45:30.236Z,3.70
2019-01-28T03:48:00.931Z,3.70
2019-01-28T03:50:32.575Z,3.70
2019-01-28T03:53:03.644Z,3.70
2019-01-28T03:55:34.344Z,3.80
2019-01-28T03:58:05.491Z,3.80
2019-01-28T04:00:36.533Z,3.70
2019-01-28T04:03:07.236Z,3.70
2019-01-28T04:05:38.588Z,3.80
2019-01-28T04:08:09.736Z,3.70
2019-01-28T04:10:41.111Z,3.70
2019-01-28T04:13:11.968Z,3.70
2019-01-28T04:15:43.210Z,3.70
2019-01-28T04:18:14.227Z,3.70
2019-01-28T04:20:45.241Z,3.70
2019-01-28T04:23:15.951Z,3.70
2019-01-28T04:25:46.777Z,3.70
2019-01-28T04:28:17.574Z,3.70
2019-01-28T04:30:48.658Z,3.70
2019-01-28T04:33:19.752Z,3.70
2019-01-28T04:35:50.877Z,3.70
2019-01-28T04:38:21.618Z,3.70
2019-01-28T04:40:52.370Z,3.70
2019-01-28T04:43:23.059Z,3.70
2019-01-28T04:45:53.912Z,3.70
2019-01-28T04:48:24.871Z,3.70
2019-01-28T04:50:55.878Z,3.70
2019-01-28T04:53:26.959Z,3.60
2019-01-28T04:55:57.717Z,3.60
2019-01-28T04:58:28.411Z,3.60
2019-01-28T05:00:59.115Z,3.70
2019-01-28T05:03:30.175Z,3.70
2019-01-28T05:06:00.985Z,3.60
2019-01-28T05:08:31.818Z,3.60
2019-01-28T05:11:02.914Z,3.60
2019-01-28T05:13:33.647Z,3.60
2019-01-28T05:16:04.607Z,3.70
2019-01-28T05:18:35.697Z,3.70
2019-01-28T05:21:06.591Z,3.70
2019-01-28T05:23:37.401Z,3.70
2019-01-28T05:26:09.115Z,3.70
2019-01-28T05:28:39.841Z,3.70
2019-01-28T05:31:10.830Z,3.70
2019-01-28T05:33:41.543Z,3.70
2019-01-28T05:36:12.349Z,3.60
2019-01-28T05:38:43.043Z,3.60
2019-01-28T05:41:13.799Z,3.60
2019-01-28T05:43:44.522Z,3.60
2019-01-28T05:46:15.979Z,3.50
2019-01-28T05:48:46.787Z,3.50
2019-01-28T05:51:17.511Z,3.50
2019-01-28T05:53:48.885Z,3.50
2019-01-28T05:56:19.760Z,3.50
2019-01-28T05:58:50.730Z,3.50
2019-01-28T06:01:21.634Z,3.50
2019-01-28T06:03:52.717Z,3.50
2019-01-28T06:06:23.537Z,3.50
2019-01-28T06:08:54.794Z,3.60
2019-01-28T06:11:25.604Z,3.60
2019-01-28T06:13:56.391Z,3.50
2019-01-28T06:16:27.196Z,3.50
2019-01-28T06:18:58.910Z,3.50
2019-01-28T06:21:29.651Z,3.50
2019-01-28T06:24:00.721Z,3.50
2019-01-28T06:26:31.543Z,3.50
2019-01-28T06:29:02.610Z,3.50
2019-01-28T06:31:33.689Z,3.50
2019-01-28T06:34:04.938Z,3.50
2019-01-28T06:36:35.980Z,3.50
2019-01-28T06:39:10.014Z,3.50
2019-01-28T06:41:41.420Z,3.50
2019-01-28T06:44:12.259Z,3.50
2019-01-28T06:46:43.107Z,3.40
2019-01-28T06:49:13.803Z,3.40
2019-01-28T06:51:44.537Z,3.40
2019-01-28T06:54:15.563Z,3.40
2019-01-28T06:56:46.745Z,3.40
2019-01-28T06:59:17.761Z,3.40
2019-01-28T07:01:50.295Z,3.50
2019-01-28T07:04:21.068Z,3.50
2019-01-28T07:06:51.820Z,3.50
2019-01-28T07:09:22.532Z,3.50
2019-01-28T07:11:53.364Z,3.50
2019-01-28T07:14:24.084Z,3.50
2019-01-28T07:16:54.987Z,3.50
2019-01-28T07:19:29.190Z,3.50
2019-01-28T07:21:58.684Z,3.50
2019-01-28T07:24:29.487Z,3.50
2019-01-28T07:27:00.202Z,3.50
2019-01-28T07:29:30.947Z,3.50
2019-01-28T07:32:01.690Z,3.50
2019-01-28T07:34:32.727Z,3.50
2019-01-28T07:37:03.890Z,3.50
2019-01-28T07:39:35.249Z,3.50
2019-01-28T07:42:06.629Z,3.50
2019-01-28T07:44:37.429Z,3.50
2019-01-28T07:47:08.455Z,3.60
2019-01-28T07:49:39.155Z,3.60
2019-01-28T07:52:10.787Z,3.60
2019-01-28T07:54:41.623Z,3.50
2019-01-28T07:57:12.771Z,3.50
2019-01-28T07:59:43.969Z,3.60
2019-01-28T08:02:14.939Z,3.60
2019-01-28T08:04:46.226Z,3.70
2019-01-28T08:07:17.614Z,3.70
2019-01-28T08:09:48.673Z,3.70
2019-01-28T08:12:19.744Z,3.70
2019-01-28T08:14:50.466Z,3.60
2019-01-28T08:17:22.367Z,3.60
2019-01-28T08:19:53.123Z,3.70
2019-01-28T08:22:23.987Z,3.70
2019-01-28T08:24:54.703Z,3.80
2019-01-28T08:27:25.847Z,3.80
2019-01-28T08:29:57.003Z,3.80
2019-01-28T08:32:27.998Z,3.90
2019-01-28T08:34:58.724Z,4.00
2019-01-28T08:37:29.791Z,4.10
2019-01-28T08:40:00.834Z,4.10
2019-01-28T08:42:31.583Z,4.20
2019-01-28T08:45:02.452Z,4.30
2019-01-28T08:47:33.198Z,4.30
2019-01-28T08:50:05.183Z,4.30
2019-01-28T08:52:36.006Z,4.40
2019-01-28T08:55:08.783Z,4.40
2019-01-28T08:57:39.533Z,4.50
2019-01-28T09:00:14.627Z,4.50
2019-01-28T09:02:45.527Z,4.60
2019-01-28T09:05:16.487Z,4.70
2019-01-28T09:07:47.295Z,4.70
2019-01-28T09:10:19.635Z,4.80
2019-01-28T09:12:50.752Z,4.90
2019-01-28T09:15:22.024Z,4.90
2019-01-28T09:17:53.054Z,5.00
2019-01-28T09:20:24.356Z,5.00
2019-01-28T09:22:55.175Z,5.10
2019-01-28T09:25:26.055Z,5.10
2019-01-28T09:27:58.171Z,5.20
2019-01-28T09:30:31.000Z,5.30
2019-01-28T09:33:01.897Z,5.30
2019-01-28T09:35:32.677Z,5.40
2019-01-28T09:38:04.651Z,5.40
2019-01-28T09:40:35.923Z,5.50
2019-01-28T09:43:07.378Z,5.50
2019-01-28T09:45:42.744Z,5.60
2019-01-28T09:48:15.342Z,5.60
2019-01-28T09:50:46.410Z,5.60
2019-01-28T09:53:17.604Z,5.60
2019-01-28T09:55:49.086Z,5.70
2019-01-28T09:58:19.894Z,5.70
2019-01-28T10:00:51.831Z,5.70
2019-01-28T10:03:22.976Z,5.70
2019-01-28T10:05:53.850Z,5.70
2019-01-28T10:08:24.599Z,5.80
2019-01-28T10:10:55.732Z,5.70
2019-01-28T10:13:26.906Z,5.70
2019-01-28T10:15:57.585Z,5.80
2019-01-28T10:18:28.358Z,5.80
2019-01-28T10:20:59.587Z,5.80
2019-01-28T10:23:30.840Z,5.80
2019-01-28T10:26:01.564Z,5.80
2019-01-28T10:28:32.820Z,5.70
2019-01-28T10:31:03.966Z,5.70
2019-01-28T10:33:35.243Z,5.70
2019-01-28T10:36:06.410Z,5.70
2019-01-28T10:38:37.635Z,5.60
2019-01-28T10:41:08.876Z,5.60
2019-01-28T10:43:39.881Z,5.60
2019-01-28T10:46:11.014Z,5.50
2019-01-28T10:48:49.384Z,5.50
2019-01-28T10:51:14.879Z,5.50
2019-01-28T10:53:45.827Z,5.50
2019-01-28T10:56:16.686Z,5.50
2019-01-28T10:58:47.526Z,5.50
2019-01-28T11:01:18.395Z,5.50
2019-01-28T11:03:49.283Z,5.60
2019-01-28T11:06:20.091Z,5.50
2019-01-28T11:08:50.954Z,5.50
2019-01-28T11:11:21.960Z,5.60
2019-01-28T11:13:52.706Z,5.60
2019-01-28T11:16:23.487Z,5.60
2019-01-28T11:18:57.733Z,5.60
2019-01-28T11:21:26.997Z,5.60
2019-01-28T11:23:58.013Z,5.60
2019-01-28T11:26:28.889Z,5.60
2019-01-28T11:28:59.793Z,5.60
2019-01-28T11:31:30.995Z,5.70
2019-01-28T11:34:02.531Z,5.60
2019-01-28T11:36:33.420Z,5.60
2019-01-28T11:39:07.315Z,5.60
2019-01-28T11:41:38.218Z,5.70
2019-01-28T11:44:09.061Z,5.60
2019-01-28T11:46:40.084Z,5.60
2019-01-28T11:49:11.025Z,5.60
2019-01-28T11:51:43.439Z,5.60
2019-01-28T11:54:14.252Z,5.60
2019-01-28T11:56:45.016Z,5.60
2019-01-28T11:59:15.758Z,5.60
2019-01-28T12:01:46.561Z,5.60
2019-01-28T12:04:19.105Z,5.60
2019-01-28T12:06:50.388Z,5.60
2019-01-28T12:09:21.150Z,5.60
2019-01-28T12:11:52.038Z,5.50
2019-01-28T12:14:23.129Z,5.50
2019-01-28T12:16:54.249Z,5.50
2019-01-28T12:19:25.027Z,5.40
2019-01-28T12:21:55.948Z,5.50
2019-01-28T12:24:26.796Z,5.50
2019-01-28T12:26:57.846Z,5.50
2019-01-28T12:29:28.850Z,5.50
2019-01-28T12:31:59.756Z,5.50
2019-01-28T12:34:30.491Z,5.50
2019-01-28T12:37:01.299Z,5.40
2019-01-28T12:39:32.086Z,5.40
2019-01-28T12:42:02.791Z,5.30
2019-01-28T12:44:33.595Z,5.30
2019-01-28T12:47:04.372Z,5.30
2019-01-28T12:49:35.194Z,5.20
2019-01-28T12:52:06.036Z,5.20
2019-01-28T12:54:36.747Z,5.30
2019-01-28T12:57:07.580Z,5.20
2019-01-28T12:59:38.842Z,5.20
2019-01-28T13:02:09.651Z,5.20
2019-01-28T13:04:42.235Z,5.20
2019-01-28T13:07:12.877Z,5.20
2019-01-28T13:09:44.066Z,5.20
2019-01-28T13:12:14.819Z,5.20
2019-01-28T13:14:45.566Z,5.30
2019-01-28T13:17:16.274Z,5.20
2019-01-28T13:19:47.107Z,5.20
2019-01-28T13:22:18.221Z,5.20
2019-01-28T13:24:49.722Z,5.20
2019-01-28T13:27:20.758Z,5.10
2019-01-28T13:29:51.521Z,5.10
2019-01-28T13:32:22.299Z,5.10
2019-01-28T13:34:53.659Z,5.10
2019-01-28T13:37:24.455Z,5.10
2019-01-28T13:39:55.279Z,5.10
2019-01-28T13:42:26.066Z,5.20
2019-01-28T13:44:56.779Z,5.20
2019-01-28T13:47:27.598Z,5.20
2019-01-28T13:49:58.359Z,5.30
2019-01-28T13:52:29.076Z,5.30
2019-01-28T13:54:59.927Z,5.30
2019-01-28T13:57:30.640Z,5.20
2019-01-28T14:00:01.884Z,5.20
2019-01-28T14:02:32.595Z,5.20
2019-01-28T14:05:03.914Z,5.20
2019-01-28T14:07:34.763Z,5.30
2019-01-28T14:10:06.467Z,5.40
2019-01-28T14:12:37.331Z,5.50
2019-01-28T14:15:11.699Z,5.40
2019-01-28T14:17:42.442Z,5.40
2019-01-28T14:20:16.028Z,5.30
2019-01-28T14:22:46.756Z,5.30
2019-01-28T14:25:18.612Z,5.20
2019-01-28T14:27:50.138Z,5.20
2019-01-28T14:30:25.391Z,5.20
2019-01-28T14:32:56.162Z,5.30
2019-01-28T14:35:27.006Z,5.30
2019-01-28T14:37:58.563Z,5.30
2019-01-28T14:40:29.796Z,5.30
2019-01-28T14:43:00.704Z,5.20
2019-01-28T14:45:31.685Z,5.00
2019-01-28T14:48:02.562Z,5.10
2019-01-28T14:50:33.576Z,5.00
2019-01-28T14:56:02.219Z,5.00
2019-01-28T14:58:33.090Z,5.00
2019-01-28T15:01:04.320Z,5.00
2019-01-28T15:03:35.035Z,5.00
2019-01-28T15:06:05.939Z,4.90
2019-01-28T15:08:37.754Z,5.00
2019-01-28T15:11:08.943Z,5.00
2019-01-28T15:13:39.910Z,5.00
2019-01-28T15:16:10.831Z,5.00
2019-01-28T15:18:41.594Z,5.10
2019-01-28T15:21:12.408Z,5.10
2019-01-28T15:23:43.823Z,5.10
2019-01-28T15:26:15.011Z,5.10
2019-01-28T15:28:46.178Z,5.20
2019-01-28T15:31:17.214Z,5.30
2019-01-28T15:33:48.056Z,5.30
2019-01-28T15:36:19.115Z,5.30
2019-01-28T15:38:49.848Z,5.30
2019-01-28T15:41:20.627Z,5.30
2019-01-28T15:43:51.887Z,5.30
2019-01-28T15:46:24.531Z,5.40
2019-01-28T15:48:55.526Z,5.30
2019-01-28T15:51:26.315Z,5.30
2019-01-28T15:53:57.051Z,5.30
2019-01-28T15:56:28.411Z,5.30
2019-01-28T15:58:59.476Z,5.40
2019-01-28T16:01:30.198Z,5.30
2019-01-28T16:04:01.262Z,5.30
2019-01-28T16:06:31.985Z,5.30
2019-01-28T16:09:03.142Z,5.30
2019-01-28T16:11:34.905Z,5.30
2019-01-28T16:14:05.691Z,5.30
2019-01-28T16:16:36.555Z,5.30
2019-01-28T16:19:07.605Z,5.40
2019-01-28T16:21:38.802Z,5.30
2019-01-28T16:24:09.670Z,5.20
2019-01-28T16:26:40.414Z,5.10
2019-01-28T16:29:12.503Z,5.10
2019-01-28T16:31:43.208Z,5.00
2019-01-28T16:34:14.603Z,5.00
2019-01-28T16:36:46.111Z,4.90
2019-01-28T16:39:16.861Z,4.90
2019-01-28T16:41:47.633Z,4.80
2019-01-28T16:44:19.163Z,4.80
2019-01-28T16:46:50.633Z,4.80
2019-01-28T16:49:21.636Z,4.70
2019-01-28T16:51:52.351Z,4.70
2019-01-28T16:54:23.311Z,4.70
2019-01-28T16:56:54.046Z,4.70
2019-01-28T16:59:25.079Z,4.60
2019-01-28T17:01:55.864Z,4.60
2019-01-28T17:04:27.822Z,4.60
2019-01-28T17:06:58.670Z,4.50
2019-01-28T17:09:29.687Z,4.50
2019-01-28T17:12:00.513Z,4.40
2019-01-28T17:14:31.569Z,4.40
2019-01-28T17:17:02.446Z,4.40
2019-01-28T17:19:33.244Z,4.30
2019-01-28T17:22:04.258Z,4.30
2019-01-28T17:24:34.994Z,4.30
2019-01-28T17:27:05.942Z,4.30
2019-01-28T17:29:36.984Z,4.30
2019-01-28T17:32:07.778Z,4.30
2019-01-28T17:34:38.607Z,4.30
2019-01-28T17:37:09.399Z,4.30
2019-01-28T17:39:40.231Z,4.50
2019-01-28T17:42:11.239Z,4.50
2019-01-28T17:44:41.991Z,4.60
2019-01-28T17:47:12.811Z,4.60
2019-01-28T17:49:43.972Z,4.70
2019-01-28T17:52:15.019Z,4.70
2019-01-28T17:54:45.744Z,4.80
2019-01-28T17:57:17.479Z,4.80
2019-01-28T17:59:48.231Z,4.80
2019-01-28T18:02:19.370Z,4.80
2019-01-28T18:04:50.286Z,4.80
2019-01-28T18:07:21.002Z,4.80
2019-01-28T18:09:51.759Z,4.80
2019-01-28T18:12:22.557Z,4.70
2019-01-28T18:14:53.314Z,4.70
2019-01-28T18:17:24.007Z,4.80
2019-01-28T18:19:55.935Z,4.80
2019-01-28T18:22:32.900Z,4.80
2019-01-28T18:25:03.679Z,4.70
2019-01-28T18:27:34.439Z,4.70
2019-01-28T18:30:09.022Z,4.70
2019-01-28T18:32:39.742Z,4.60
2019-01-28T18:35:11.107Z,4.60
2019-01-28T18:37:41.851Z,4.60
2019-01-28T18:40:13.308Z,4.60
2019-01-28T18:42:44.134Z,4.60
2019-01-28T18:45:18.358Z,4.70
2019-01-28T18:47:47.771Z,4.60
2019-01-28T18:50:18.692Z,4.60
2019-01-28T18:52:49.890Z,4.50
2019-01-28T18:55:22.012Z,4.50
2019-01-28T18:57:53.050Z,4.50
2019-01-28T19:00:25.637Z,4.40
2019-01-28T19:02:56.480Z,4.30
2019-01-28T19:05:45.618Z,4.30
2019-01-28T19:08:34.736Z,4.20
2019-01-28T19:11:13.939Z,4.20
2019-01-28T19:14:06.747Z,4.30
2019-01-28T19:16:46.981Z,4.30
2019-01-28T19:19:27.763Z,4.30
2019-01-28T19:22:00.574Z,4.20
2019-01-28T19:24:31.595Z,4.10
2019-01-28T19:27:02.490Z,4.10
2019-01-28T19:29:33.331Z,4.10
2019-01-28T19:32:04.320Z,4.10
2019-01-28T19:34:35.051Z,4.10
2019-01-28T19:37:05.889Z,4.10
2019-01-28T19:39:36.612Z,4.10
2019-01-28T19:42:07.742Z,4.10
2019-01-28T19:44:38.551Z,4.20
2019-01-28T19:47:09.450Z,4.20
2019-01-28T19:49:40.213Z,4.10
2019-01-28T19:52:11.058Z,4.00
2019-01-28T19:54:41.846Z,3.80
2019-01-28T19:57:13.024Z,3.70
2019-01-28T19:59:43.751Z,3.70
2019-01-28T20:02:14.546Z,3.60
2019-01-28T20:04:45.300Z,3.50
2019-01-28T20:07:16.126Z,3.50
2019-01-28T20:09:46.991Z,3.50
2019-01-28T20:12:18.224Z,3.50
2019-01-28T20:14:50.403Z,3.40
2019-01-28T20:17:21.212Z,3.40
2019-01-28T20:19:52.542Z,3.30
2019-01-28T20:22:23.355Z,3.30
2019-01-28T20:24:54.217Z,3.30
2019-01-28T20:27:24.960Z,3.30
2019-01-28T20:29:56.742Z,3.30
2019-01-28T20:32:27.683Z,3.20
2019-01-28T20:34:58.431Z,3.20
2019-01-28T20:37:29.474Z,3.30
2019-01-28T20:40:00.634Z,3.30
2019-01-28T20:42:31.723Z,3.30
2019-01-28T20:45:02.513Z,3.40
2019-01-28T20:47:33.219Z,3.40
2019-01-28T20:50:04.950Z,3.50
2019-01-28T20:52:35.833Z,3.50
2019-01-28T20:55:08.024Z,3.50
2019-01-28T20:57:38.859Z,3.50
2019-01-28T21:00:18.992Z,3.50
2019-01-28T21:02:49.923Z,3.50
2019-01-28T21:05:20.932Z,3.50
2019-01-28T21:07:51.990Z,3.50
2019-01-28T21:10:22.865Z,3.50
2019-01-28T21:12:54.197Z,3.50
2019-01-28T21:15:25.242Z,3.50
2019-01-28T21:17:56.181Z,3.50
2019-01-28T21:20:28.375Z,3.60
2019-01-28T21:23:01.231Z,3.60
2019-01-28T21:25:32.216Z,3.70
2019-01-28T21:28:03.320Z,3.60
2019-01-28T21:30:34.146Z,3.60
2019-01-28T21:33:05.056Z,3.60
2019-01-28T21:35:46.063Z,3.50
2019-01-28T21:38:21.540Z,3.50
2019-01-28T21:40:52.812Z,3.30
2019-01-28T21:43:23.751Z,3.20
2019-01-28T21:45:55.510Z,3.20
2019-01-28T21:48:26.405Z,3.20
2019-01-28T21:50:57.431Z,3.20
2019-01-28T21:53:28.268Z,3.30
2019-01-28T21:55:59.688Z,3.30
2019-01-28T21:58:30.759Z,3.30
2019-01-28T22:01:01.936Z,3.30
2019-01-28T22:03:33.863Z,3.40
2019-01-28T22:06:05.875Z,3.50
2019-01-28T22:08:37.007Z,3.50
2019-01-28T22:11:07.890Z,3.50
2019-01-28T22:13:38.732Z,3.50
2019-01-28T22:16:09.545Z,3.60
2019-01-28T22:18:40.596Z,3.60
2019-01-28T22:21:14.940Z,3.60
2019-01-28T22:23:45.816Z,3.50
2019-01-28T22:26:16.618Z,3.40
2019-01-28T22:28:47.419Z,3.40
2019-01-28T22:31:18.170Z,3.40
2019-01-28T22:33:49.023Z,3.40
2019-01-28T22:36:20.238Z,3.40
2019-01-28T22:38:51.422Z,3.40
2019-01-28T22:41:22.156Z,3.40
2019-01-28T22:43:53.877Z,3.30
2019-01-28T22:46:24.648Z,3.40
2019-01-28T22:48:55.450Z,3.40
2019-01-28T22:51:26.511Z,3.30
2019-01-28T22:53:57.602Z,3.40
2019-01-28T22:56:28.364Z,3.30
2019-01-28T22:58:59.430Z,3.20
2019-01-28T23:01:33.060Z,3.20
2019-01-28T23:04:04.054Z,3.10
2019-01-28T23:06:35.119Z,3.10
2019-01-28T23:09:09.652Z,3.10
2019-01-28T23:11:40.412Z,3.10
2019-01-28T23:14:11.806Z,3.00
2019-01-28T23:16:42.522Z,3.00
2019-01-28T23:19:13.603Z,3.00
2019-01-28T23:21:44.426Z,2.90
2019-01-28T23:24:15.548Z,2.90
2019-01-28T23:26:46.384Z,2.90
2019-01-28T23:29:17.262Z,3.00
2019-01-28T23:31:48.051Z,3.00
2019-01-28T23:34:19.135Z,3.10
2019-01-28T23:36:49.850Z,3.20
2019-01-28T23:39:21.410Z,3.20
2019-01-28T23:41:52.111Z,3.30
2019-01-28T23:44:22.940Z,3.30
2019-01-28T23:46:53.737Z,3.30
2019-01-28T23:49:24.483Z,3.30
2019-01-28T23:51:55.201Z,3.30
2019-01-28T23:54:26.288Z,3.30
2019-01-28T23:56:56.998Z,3.30
2019-01-28T23:59:28.599Z,3.30
